sensor_id;sensor_type;location;lat;lon;timestamp;P1;durP1;ratioP1;P2;durP2;ratioP2
31754;SDS011;18325;52.018;4.726;2023-02-28T00:00:46;1.17;;;0.90;;
31754;SDS011;18325;52.018;4.726;2023-02-28T00:03:12;2.20;;;1.10;;
31754;SDS011;18325;52.018;4.726;2023-02-28T00:05:39;1.77;;;1.10;;
31754;SDS011;18325;52.018;4.726;2023-02-28T00:08:06;1.37;;;0.87;;
31754;SDS011;18325;52.018;4.726;2023-02-28T00:20:42;0.87;;;0.60;;
31754;SDS011;18325;52.018;4.726;2023-02-28T00:23:09;1.30;;;1.00;;
31754;SDS011;18325;52.018;4.726;2023-02-28T00:25:35;0.83;;;0.70;;
31754;SDS011;18325;52.018;4.726;2023-02-28T00:28:09;1.03;;;0.70;;
31754;SDS011;18325;52.018;4.726;2023-02-28T00:30:38;3.27;;;1.37;;
31754;SDS011;18325;52.018;4.726;2023-02-28T00:33:05;1.37;;;0.90;;
31754;SDS011;18325;52.018;4.726;2023-02-28T00:42:14;1.23;;;0.70;;
31754;SDS011;18325;52.018;4.726;2023-02-28T00:44:41;1.00;;;1.00;;
31754;SDS011;18325;52.018;4.726;2023-02-28T00:47:07;4.53;;;1.13;;
31754;SDS011;18325;52.018;4.726;2023-02-28T00:49:33;1.63;;;1.33;;
31754;SDS011;18325;52.018;4.726;2023-02-28T00:52:00;1.10;;;0.90;;
31754;SDS011;18325;52.018;4.726;2023-02-28T01:05:16;0.90;;;0.70;;
31754;SDS011;18325;52.018;4.726;2023-02-28T01:07:46;1.20;;;1.10;;
31754;SDS011;18325;52.018;4.726;2023-02-28T01:10:13;4.33;;;1.30;;
31754;SDS011;18325;52.018;4.726;2023-02-28T01:12:43;4.53;;;0.80;;
31754;SDS011;18325;52.018;4.726;2023-02-28T01:15:10;1.40;;;0.90;;
31754;SDS011;18325;52.018;4.726;2023-02-28T01:20:41;2.33;;;0.90;;
31754;SDS011;18325;52.018;4.726;2023-02-28T01:23:08;0.53;;;0.43;;
31754;SDS011;18325;52.018;4.726;2023-02-28T01:25:35;2.07;;;1.00;;
31754;SDS011;18325;52.018;4.726;2023-02-28T01:28:05;2.10;;;1.23;;
31754;SDS011;18325;52.018;4.726;2023-02-28T01:30:34;1.30;;;0.67;;
31754;SDS011;18325;52.018;4.726;2023-02-28T01:33:10;2.10;;;1.00;;
31754;SDS011;18325;52.018;4.726;2023-02-28T01:35:44;1.30;;;1.00;;
31754;SDS011;18325;52.018;4.726;2023-02-28T01:38:11;4.53;;;1.10;;
31754;SDS011;18325;52.018;4.726;2023-02-28T01:40:38;1.67;;;1.10;;
31754;SDS011;18325;52.018;4.726;2023-02-28T01:43:05;1.50;;;1.00;;
31754;SDS011;18325;52.018;4.726;2023-02-28T01:45:36;1.30;;;0.77;;
31754;SDS011;18325;52.018;4.726;2023-02-28T01:48:04;1.37;;;1.13;;
31754;SDS011;18325;52.018;4.726;2023-02-28T01:50:33;2.67;;;0.90;;
31754;SDS011;18325;52.018;4.726;2023-02-28T01:53:04;1.17;;;0.97;;
31754;SDS011;18325;52.018;4.726;2023-02-28T01:55:33;2.00;;;0.80;;
31754;SDS011;18325;52.018;4.726;2023-02-28T01:58:01;2.40;;;1.10;;
31754;SDS011;18325;52.018;4.726;2023-02-28T02:00:29;1.43;;;1.13;;
31754;SDS011;18325;52.018;4.726;2023-02-28T02:02:57;1.27;;;1.03;;
31754;SDS011;18325;52.018;4.726;2023-02-28T02:05:25;1.50;;;1.10;;
31754;SDS011;18325;52.018;4.726;2023-02-28T02:07:54;3.43;;;1.30;;
31754;SDS011;18325;52.018;4.726;2023-02-28T02:10:24;5.30;;;1.03;;
31754;SDS011;18325;52.018;4.726;2023-02-28T02:13:05;4.67;;;1.30;;
31754;SDS011;18325;52.018;4.726;2023-02-28T02:15:39;4.30;;;1.40;;
31754;SDS011;18325;52.018;4.726;2023-02-28T02:18:09;2.63;;;1.20;;
31754;SDS011;18325;52.018;4.726;2023-02-28T02:20:58;0.90;;;0.83;;
31754;SDS011;18325;52.018;4.726;2023-02-28T02:29:52;2.17;;;1.17;;
31754;SDS011;18325;52.018;4.726;2023-02-28T02:33:02;2.20;;;0.80;;
31754;SDS011;18325;52.018;4.726;2023-02-28T02:35:35;1.00;;;0.80;;
31754;SDS011;18325;52.018;4.726;2023-02-28T02:38:06;2.47;;;1.20;;
31754;SDS011;18325;52.018;4.726;2023-02-28T02:40:36;2.23;;;1.23;;
31754;SDS011;18325;52.018;4.726;2023-02-28T02:43:06;4.03;;;1.27;;
31754;SDS011;18325;52.018;4.726;2023-02-28T02:45:35;1.73;;;1.13;;
31754;SDS011;18325;52.018;4.726;2023-02-28T02:48:05;2.10;;;1.10;;
31754;SDS011;18325;52.018;4.726;2023-02-28T02:50:36;2.50;;;2.20;;
31754;SDS011;18325;52.018;4.726;2023-02-28T02:53:05;2.27;;;1.40;;
31754;SDS011;18325;52.018;4.726;2023-02-28T02:55:34;1.90;;;1.40;;
31754;SDS011;18325;52.018;4.726;2023-02-28T02:58:03;2.20;;;1.07;;
31754;SDS011;18325;52.018;4.726;2023-02-28T03:00:32;1.53;;;1.20;;
31754;SDS011;18325;52.018;4.726;2023-02-28T03:03:01;1.57;;;1.10;;
31754;SDS011;18325;52.018;4.726;2023-02-28T03:05:30;8.10;;;1.43;;
31754;SDS011;18325;52.018;4.726;2023-02-28T03:08:04;1.57;;;0.90;;
31754;SDS011;18325;52.018;4.726;2023-02-28T03:10:32;2.40;;;1.50;;
31754;SDS011;18325;52.018;4.726;2023-02-28T03:13:09;1.93;;;1.03;;
31754;SDS011;18325;52.018;4.726;2023-02-28T03:15:54;1.73;;;1.40;;
31754;SDS011;18325;52.018;4.726;2023-02-28T03:18:26;8.43;;;1.30;;
31754;SDS011;18325;52.018;4.726;2023-02-28T03:20:56;3.20;;;1.77;;
31754;SDS011;18325;52.018;4.726;2023-02-28T03:23:32;3.33;;;1.40;;
31754;SDS011;18325;52.018;4.726;2023-02-28T03:26:04;6.50;;;1.63;;
31754;SDS011;18325;52.018;4.726;2023-02-28T03:28:35;2.00;;;1.70;;
31754;SDS011;18325;52.018;4.726;2023-02-28T03:31:11;4.47;;;1.40;;
31754;SDS011;18325;52.018;4.726;2023-02-28T03:33:42;2.50;;;1.30;;
31754;SDS011;18325;52.018;4.726;2023-02-28T03:36:12;2.20;;;1.37;;
31754;SDS011;18325;52.018;4.726;2023-02-28T03:38:43;1.07;;;0.87;;
31754;SDS011;18325;52.018;4.726;2023-02-28T03:41:13;1.03;;;0.90;;
31754;SDS011;18325;52.018;4.726;2023-02-28T03:43:43;4.47;;;1.53;;
31754;SDS011;18325;52.018;4.726;2023-02-28T03:46:12;2.17;;;1.30;;
31754;SDS011;18325;52.018;4.726;2023-02-28T03:48:42;1.77;;;1.40;;
31754;SDS011;18325;52.018;4.726;2023-02-28T03:51:10;2.43;;;1.40;;
31754;SDS011;18325;52.018;4.726;2023-02-28T03:53:43;3.50;;;1.50;;
31754;SDS011;18325;52.018;4.726;2023-02-28T03:56:12;4.17;;;1.20;;
31754;SDS011;18325;52.018;4.726;2023-02-28T03:58:43;2.93;;;1.30;;
31754;SDS011;18325;52.018;4.726;2023-02-28T04:01:15;4.20;;;1.67;;
31754;SDS011;18325;52.018;4.726;2023-02-28T04:03:44;2.53;;;1.50;;
31754;SDS011;18325;52.018;4.726;2023-02-28T04:06:14;3.33;;;1.60;;
31754;SDS011;18325;52.018;4.726;2023-02-28T04:08:44;2.00;;;1.50;;
31754;SDS011;18325;52.018;4.726;2023-02-28T04:11:13;1.73;;;1.13;;
31754;SDS011;18325;52.018;4.726;2023-02-28T04:13:44;3.17;;;1.90;;
31754;SDS011;18325;52.018;4.726;2023-02-28T04:16:11;3.17;;;1.80;;
31754;SDS011;18325;52.018;4.726;2023-02-28T04:18:38;3.13;;;2.07;;
31754;SDS011;18325;52.018;4.726;2023-02-28T04:21:04;9.20;;;1.83;;
31754;SDS011;18325;52.018;4.726;2023-02-28T04:23:31;2.93;;;1.60;;
31754;SDS011;18325;52.018;4.726;2023-02-28T04:25:59;3.53;;;1.80;;
31754;SDS011;18325;52.018;4.726;2023-02-28T04:28:25;3.60;;;2.27;;
31754;SDS011;18325;52.018;4.726;2023-02-28T04:30:55;2.40;;;1.60;;
31754;SDS011;18325;52.018;4.726;2023-02-28T04:33:22;1.70;;;1.40;;
31754;SDS011;18325;52.018;4.726;2023-02-28T04:35:57;4.97;;;2.03;;
31754;SDS011;18325;52.018;4.726;2023-02-28T04:38:24;2.97;;;2.03;;
31754;SDS011;18325;52.018;4.726;2023-02-28T04:40:51;2.97;;;1.63;;
31754;SDS011;18325;52.018;4.726;2023-02-28T04:43:18;3.90;;;2.10;;
31754;SDS011;18325;52.018;4.726;2023-02-28T04:45:45;4.10;;;2.20;;
31754;SDS011;18325;52.018;4.726;2023-02-28T04:48:11;4.30;;;2.20;;
31754;SDS011;18325;52.018;4.726;2023-02-28T04:50:38;4.47;;;2.17;;
31754;SDS011;18325;52.018;4.726;2023-02-28T04:53:04;2.07;;;1.60;;
31754;SDS011;18325;52.018;4.726;2023-02-28T04:55:31;1.77;;;1.60;;
31754;SDS011;18325;52.018;4.726;2023-02-28T04:57:57;3.93;;;2.23;;
31754;SDS011;18325;52.018;4.726;2023-02-28T05:00:25;3.77;;;1.93;;
31754;SDS011;18325;52.018;4.726;2023-02-28T05:02:52;2.50;;;1.97;;
31754;SDS011;18325;52.018;4.726;2023-02-28T05:05:18;2.83;;;1.77;;
31754;SDS011;18325;52.018;4.726;2023-02-28T05:07:45;6.10;;;2.17;;
31754;SDS011;18325;52.018;4.726;2023-02-28T05:10:11;3.87;;;2.10;;
31754;SDS011;18325;52.018;4.726;2023-02-28T05:12:38;6.73;;;2.10;;
31754;SDS011;18325;52.018;4.726;2023-02-28T05:15:05;3.13;;;2.10;;
31754;SDS011;18325;52.018;4.726;2023-02-28T05:17:33;4.13;;;2.20;;
31754;SDS011;18325;52.018;4.726;2023-02-28T05:20:00;5.43;;;3.03;;
31754;SDS011;18325;52.018;4.726;2023-02-28T05:22:27;6.17;;;3.00;;
31754;SDS011;18325;52.018;4.726;2023-02-28T05:24:54;5.77;;;2.20;;
31754;SDS011;18325;52.018;4.726;2023-02-28T05:27:21;4.90;;;2.20;;
31754;SDS011;18325;52.018;4.726;2023-02-28T05:29:53;6.63;;;2.80;;
31754;SDS011;18325;52.018;4.726;2023-02-28T05:32:36;5.63;;;2.17;;
31754;SDS011;18325;52.018;4.726;2023-02-28T05:35:03;5.90;;;2.80;;
31754;SDS011;18325;52.018;4.726;2023-02-28T05:37:31;8.87;;;2.33;;
31754;SDS011;18325;52.018;4.726;2023-02-28T05:39:57;4.73;;;2.33;;
31754;SDS011;18325;52.018;4.726;2023-02-28T05:42:23;7.50;;;2.70;;
31754;SDS011;18325;52.018;4.726;2023-02-28T05:44:50;10.10;;;2.87;;
31754;SDS011;18325;52.018;4.726;2023-02-28T05:47:16;5.80;;;2.50;;
31754;SDS011;18325;52.018;4.726;2023-02-28T05:49:44;2.60;;;1.87;;
31754;SDS011;18325;52.018;4.726;2023-02-28T05:52:11;5.03;;;2.23;;
31754;SDS011;18325;52.018;4.726;2023-02-28T05:54:37;2.43;;;1.83;;
31754;SDS011;18325;52.018;4.726;2023-02-28T05:57:03;2.90;;;2.07;;
31754;SDS011;18325;52.018;4.726;2023-02-28T05:59:30;5.67;;;2.03;;
31754;SDS011;18325;52.018;4.726;2023-02-28T06:01:56;1.73;;;1.40;;
31754;SDS011;18325;52.018;4.726;2023-02-28T06:04:23;2.53;;;1.83;;
31754;SDS011;18325;52.018;4.726;2023-02-28T06:06:51;2.67;;;1.90;;
31754;SDS011;18325;52.018;4.726;2023-02-28T06:09:17;5.33;;;3.17;;
31754;SDS011;18325;52.018;4.726;2023-02-28T06:11:45;5.37;;;2.03;;
31754;SDS011;18325;52.018;4.726;2023-02-28T06:14:12;5.30;;;3.17;;
31754;SDS011;18325;52.018;4.726;2023-02-28T06:16:41;3.23;;;1.90;;
31754;SDS011;18325;52.018;4.726;2023-02-28T06:19:21;4.37;;;2.17;;
31754;SDS011;18325;52.018;4.726;2023-02-28T06:21:52;4.27;;;1.67;;
31754;SDS011;18325;52.018;4.726;2023-02-28T06:24:19;6.10;;;1.90;;
31754;SDS011;18325;52.018;4.726;2023-02-28T06:26:48;3.33;;;2.50;;
31754;SDS011;18325;52.018;4.726;2023-02-28T06:29:15;6.23;;;2.03;;
31754;SDS011;18325;52.018;4.726;2023-02-28T06:31:43;2.67;;;1.60;;
31754;SDS011;18325;52.018;4.726;2023-02-28T06:34:10;2.13;;;1.77;;
31754;SDS011;18325;52.018;4.726;2023-02-28T06:36:37;2.17;;;1.20;;
31754;SDS011;18325;52.018;4.726;2023-02-28T06:39:05;3.60;;;2.10;;
31754;SDS011;18325;52.018;4.726;2023-02-28T06:41:31;2.63;;;1.83;;
31754;SDS011;18325;52.018;4.726;2023-02-28T06:44:18;5.30;;;1.70;;
31754;SDS011;18325;52.018;4.726;2023-02-28T06:46:49;2.60;;;1.43;;
31754;SDS011;18325;52.018;4.726;2023-02-28T06:49:16;4.13;;;2.20;;
31754;SDS011;18325;52.018;4.726;2023-02-28T06:51:43;5.40;;;1.50;;
31754;SDS011;18325;52.018;4.726;2023-02-28T06:54:12;2.17;;;1.20;;
31754;SDS011;18325;52.018;4.726;2023-02-28T06:58:00;4.77;;;1.93;;
31754;SDS011;18325;52.018;4.726;2023-02-28T06:59:37;5.47;;;1.67;;
31754;SDS011;18325;52.018;4.726;2023-02-28T07:02:03;1.53;;;1.23;;
31754;SDS011;18325;52.018;4.726;2023-02-28T07:04:31;2.50;;;1.77;;
31754;SDS011;18325;52.018;4.726;2023-02-28T07:06:57;8.57;;;4.00;;
31754;SDS011;18325;52.018;4.726;2023-02-28T07:09:25;13.40;;;6.83;;
31754;SDS011;18325;52.018;4.726;2023-02-28T07:11:54;3.60;;;2.20;;
31754;SDS011;18325;52.018;4.726;2023-02-28T07:14:21;3.67;;;2.60;;
31754;SDS011;18325;52.018;4.726;2023-02-28T07:16:47;2.30;;;1.50;;
31754;SDS011;18325;52.018;4.726;2023-02-28T07:19:15;2.67;;;1.50;;
31754;SDS011;18325;52.018;4.726;2023-02-28T07:21:41;4.40;;;1.60;;
31754;SDS011;18325;52.018;4.726;2023-02-28T07:24:08;5.33;;;1.70;;
31754;SDS011;18325;52.018;4.726;2023-02-28T07:26:35;2.77;;;1.77;;
31754;SDS011;18325;52.018;4.726;2023-02-28T07:29:02;2.73;;;1.80;;
31754;SDS011;18325;52.018;4.726;2023-02-28T07:31:28;3.23;;;1.80;;
31754;SDS011;18325;52.018;4.726;2023-02-28T07:33:55;2.70;;;1.37;;
31754;SDS011;18325;52.018;4.726;2023-02-28T07:36:21;4.40;;;1.43;;
31754;SDS011;18325;52.018;4.726;2023-02-28T07:38:48;1.90;;;1.47;;
31754;SDS011;18325;52.018;4.726;2023-02-28T07:41:16;1.60;;;1.50;;
31754;SDS011;18325;52.018;4.726;2023-02-28T07:43:44;3.20;;;1.50;;
31754;SDS011;18325;52.018;4.726;2023-02-28T07:46:11;1.40;;;1.30;;
31754;SDS011;18325;52.018;4.726;2023-02-28T07:48:39;1.53;;;1.43;;
31754;SDS011;18325;52.018;4.726;2023-02-28T07:51:06;2.73;;;1.90;;
31754;SDS011;18325;52.018;4.726;2023-02-28T07:53:33;3.00;;;1.70;;
31754;SDS011;18325;52.018;4.726;2023-02-28T07:56:00;1.57;;;1.23;;
31754;SDS011;18325;52.018;4.726;2023-02-28T07:58:27;1.97;;;1.60;;
31754;SDS011;18325;52.018;4.726;2023-02-28T08:00:59;3.00;;;1.50;;
31754;SDS011;18325;52.018;4.726;2023-02-28T08:03:31;3.30;;;1.50;;
31754;SDS011;18325;52.018;4.726;2023-02-28T08:05:57;4.10;;;1.57;;
31754;SDS011;18325;52.018;4.726;2023-02-28T08:08:24;2.47;;;1.77;;
31754;SDS011;18325;52.018;4.726;2023-02-28T08:10:57;1.50;;;1.33;;
31754;SDS011;18325;52.018;4.726;2023-02-28T08:13:24;2.20;;;1.47;;
31754;SDS011;18325;52.018;4.726;2023-02-28T08:15:52;1.67;;;1.37;;
31754;SDS011;18325;52.018;4.726;2023-02-28T08:18:20;1.30;;;1.20;;
31754;SDS011;18325;52.018;4.726;2023-02-28T08:20:46;5.83;;;1.33;;
31754;SDS011;18325;52.018;4.726;2023-02-28T08:23:13;1.77;;;1.63;;
31754;SDS011;18325;52.018;4.726;2023-02-28T08:25:40;2.97;;;1.50;;
31754;SDS011;18325;52.018;4.726;2023-02-28T08:28:06;2.87;;;1.70;;
31754;SDS011;18325;52.018;4.726;2023-02-28T08:30:33;3.40;;;1.73;;
31754;SDS011;18325;52.018;4.726;2023-02-28T08:32:59;4.47;;;1.70;;
31754;SDS011;18325;52.018;4.726;2023-02-28T08:35:28;2.57;;;1.97;;
31754;SDS011;18325;52.018;4.726;2023-02-28T08:37:57;3.77;;;1.63;;
31754;SDS011;18325;52.018;4.726;2023-02-28T08:40:23;3.13;;;2.00;;
31754;SDS011;18325;52.018;4.726;2023-02-28T08:42:53;3.90;;;1.70;;
31754;SDS011;18325;52.018;4.726;2023-02-28T08:45:19;4.13;;;1.80;;
31754;SDS011;18325;52.018;4.726;2023-02-28T08:47:45;3.13;;;1.63;;
31754;SDS011;18325;52.018;4.726;2023-02-28T08:50:12;2.97;;;2.07;;
31754;SDS011;18325;52.018;4.726;2023-02-28T08:52:42;5.63;;;3.20;;
31754;SDS011;18325;52.018;4.726;2023-02-28T08:58:26;5.30;;;2.57;;
31754;SDS011;18325;52.018;4.726;2023-02-28T09:00:57;2.87;;;2.20;;
31754;SDS011;18325;52.018;4.726;2023-02-28T09:03:24;2.63;;;1.70;;
31754;SDS011;18325;52.018;4.726;2023-02-28T09:05:53;3.37;;;1.73;;
31754;SDS011;18325;52.018;4.726;2023-02-28T09:14:35;4.07;;;1.80;;
31754;SDS011;18325;52.018;4.726;2023-02-28T09:17:01;3.97;;;2.07;;
31754;SDS011;18325;52.018;4.726;2023-02-28T09:19:28;2.20;;;1.77;;
31754;SDS011;18325;52.018;4.726;2023-02-28T09:21:54;4.10;;;1.87;;
31754;SDS011;18325;52.018;4.726;2023-02-28T09:24:21;4.40;;;2.20;;
31754;SDS011;18325;52.018;4.726;2023-02-28T09:26:47;3.67;;;2.03;;
31754;SDS011;18325;52.018;4.726;2023-02-28T09:29:29;4.13;;;2.43;;
31754;SDS011;18325;52.018;4.726;2023-02-28T09:31:55;2.23;;;1.60;;
31754;SDS011;18325;52.018;4.726;2023-02-28T09:34:23;4.70;;;1.80;;
31754;SDS011;18325;52.018;4.726;2023-02-28T09:36:49;6.07;;;2.20;;
31754;SDS011;18325;52.018;4.726;2023-02-28T09:39:20;6.20;;;2.27;;
31754;SDS011;18325;52.018;4.726;2023-02-28T09:44:40;4.03;;;2.30;;
31754;SDS011;18325;52.018;4.726;2023-02-28T09:47:10;4.03;;;2.47;;
31754;SDS011;18325;52.018;4.726;2023-02-28T09:49:40;2.33;;;2.10;;
31754;SDS011;18325;52.018;4.726;2023-02-28T09:52:10;4.73;;;2.67;;
31754;SDS011;18325;52.018;4.726;2023-02-28T09:54:39;5.67;;;3.00;;
31754;SDS011;18325;52.018;4.726;2023-02-28T09:57:06;5.93;;;2.50;;
31754;SDS011;18325;52.018;4.726;2023-02-28T09:59:54;2.80;;;2.53;;
31754;SDS011;18325;52.018;4.726;2023-02-28T10:02:39;4.93;;;2.80;;
31754;SDS011;18325;52.018;4.726;2023-02-28T10:05:10;8.63;;;3.47;;
31754;SDS011;18325;52.018;4.726;2023-02-28T10:07:42;4.63;;;2.63;;
31754;SDS011;18325;52.018;4.726;2023-02-28T10:10:21;5.73;;;2.90;;
31754;SDS011;18325;52.018;4.726;2023-02-28T10:12:50;3.80;;;2.40;;
31754;SDS011;18325;52.018;4.726;2023-02-28T10:15:21;4.33;;;2.17;;
31754;SDS011;18325;52.018;4.726;2023-02-28T10:17:48;2.93;;;2.27;;
31754;SDS011;18325;52.018;4.726;2023-02-28T10:20:17;9.13;;;3.07;;
31754;SDS011;18325;52.018;4.726;2023-02-28T10:22:49;3.63;;;2.30;;
31754;SDS011;18325;52.018;4.726;2023-02-28T10:25:19;1.87;;;1.77;;
31754;SDS011;18325;52.018;4.726;2023-02-28T10:27:46;4.57;;;2.27;;
31754;SDS011;18325;52.018;4.726;2023-02-28T10:30:13;2.90;;;2.60;;
31754;SDS011;18325;52.018;4.726;2023-02-28T10:32:43;3.73;;;2.43;;
31754;SDS011;18325;52.018;4.726;2023-02-28T10:35:14;4.40;;;2.63;;
31754;SDS011;18325;52.018;4.726;2023-02-28T10:37:42;3.43;;;2.33;;
31754;SDS011;18325;52.018;4.726;2023-02-28T10:40:25;2.80;;;2.50;;
31754;SDS011;18325;52.018;4.726;2023-02-28T10:42:55;4.13;;;2.57;;
31754;SDS011;18325;52.018;4.726;2023-02-28T10:45:23;3.37;;;2.43;;
31754;SDS011;18325;52.018;4.726;2023-02-28T10:47:53;2.93;;;2.37;;
31754;SDS011;18325;52.018;4.726;2023-02-28T10:53:23;2.57;;;2.30;;
31754;SDS011;18325;52.018;4.726;2023-02-28T10:55:57;4.13;;;2.23;;
31754;SDS011;18325;52.018;4.726;2023-02-28T10:58:26;4.37;;;1.90;;
31754;SDS011;18325;52.018;4.726;2023-02-28T11:00:55;2.07;;;1.70;;
31754;SDS011;18325;52.018;4.726;2023-02-28T11:03:37;2.23;;;1.70;;
31754;SDS011;18325;52.018;4.726;2023-02-28T11:06:04;1.87;;;1.33;;
31754;SDS011;18325;52.018;4.726;2023-02-28T11:08:32;1.47;;;1.03;;
31754;SDS011;18325;52.018;4.726;2023-02-28T11:11:01;1.23;;;1.13;;
31754;SDS011;18325;52.018;4.726;2023-02-28T11:13:32;3.93;;;1.50;;
31754;SDS011;18325;52.018;4.726;2023-02-28T11:16:02;2.50;;;1.77;;
31754;SDS011;18325;52.018;4.726;2023-02-28T11:18:32;1.63;;;1.30;;
31754;SDS011;18325;52.018;4.726;2023-02-28T11:21:04;2.30;;;1.40;;
31754;SDS011;18325;52.018;4.726;2023-02-28T11:23:32;1.60;;;1.27;;
31754;SDS011;18325;52.018;4.726;2023-02-28T11:26:02;1.27;;;1.17;;
31754;SDS011;18325;52.018;4.726;2023-02-28T11:28:30;2.33;;;1.17;;
31754;SDS011;18325;52.018;4.726;2023-02-28T11:34:26;6.27;;;1.30;;
31754;SDS011;18325;52.018;4.726;2023-02-28T11:36:53;1.50;;;1.33;;
31754;SDS011;18325;52.018;4.726;2023-02-28T11:39:21;1.57;;;1.17;;
31754;SDS011;18325;52.018;4.726;2023-02-28T11:42:03;2.77;;;1.57;;
31754;SDS011;18325;52.018;4.726;2023-02-28T11:44:42;1.77;;;1.00;;
31754;SDS011;18325;52.018;4.726;2023-02-28T11:47:21;2.07;;;1.30;;
31754;SDS011;18325;52.018;4.726;2023-02-28T11:50:04;1.20;;;1.00;;
31754;SDS011;18325;52.018;4.726;2023-02-28T11:52:39;1.57;;;1.23;;
31754;SDS011;18325;52.018;4.726;2023-02-28T11:55:14;2.67;;;1.17;;
31754;SDS011;18325;52.018;4.726;2023-02-28T11:57:48;1.70;;;1.30;;
31754;SDS011;18325;52.018;4.726;2023-02-28T12:00:26;2.43;;;1.53;;
31754;SDS011;18325;52.018;4.726;2023-02-28T12:03:13;1.40;;;1.30;;
31754;SDS011;18325;52.018;4.726;2023-02-28T12:05:45;1.43;;;1.33;;
31754;SDS011;18325;52.018;4.726;2023-02-28T12:08:21;1.47;;;1.30;;
31754;SDS011;18325;52.018;4.726;2023-02-28T12:10:57;2.33;;;1.40;;
31754;SDS011;18325;52.018;4.726;2023-02-28T12:13:29;1.00;;;0.77;;
31754;SDS011;18325;52.018;4.726;2023-02-28T12:19:05;2.17;;;1.60;;
31754;SDS011;18325;52.018;4.726;2023-02-28T12:21:41;1.37;;;1.27;;
31754;SDS011;18325;52.018;4.726;2023-02-28T12:24:19;1.43;;;1.33;;
31754;SDS011;18325;52.018;4.726;2023-02-28T12:26:53;1.93;;;1.50;;
31754;SDS011;18325;52.018;4.726;2023-02-28T12:29:22;1.30;;;1.17;;
31754;SDS011;18325;52.018;4.726;2023-02-28T12:31:51;1.07;;;0.93;;
31754;SDS011;18325;52.018;4.726;2023-02-28T12:34:20;4.10;;;1.50;;
31754;SDS011;18325;52.018;4.726;2023-02-28T12:36:50;2.77;;;1.00;;
31754;SDS011;18325;52.018;4.726;2023-02-28T12:39:18;1.67;;;1.30;;
31754;SDS011;18325;52.018;4.726;2023-02-28T12:41:49;1.60;;;1.47;;
31754;SDS011;18325;52.018;4.726;2023-02-28T12:44:19;2.93;;;1.20;;
31754;SDS011;18325;52.018;4.726;2023-02-28T12:46:47;1.57;;;1.37;;
31754;SDS011;18325;52.018;4.726;2023-02-28T12:49:16;3.53;;;1.00;;
31754;SDS011;18325;52.018;4.726;2023-02-28T12:51:44;2.13;;;1.40;;
31754;SDS011;18325;52.018;4.726;2023-02-28T12:54:14;2.60;;;1.50;;
31754;SDS011;18325;52.018;4.726;2023-02-28T12:56:47;1.53;;;1.13;;
31754;SDS011;18325;52.018;4.726;2023-02-28T12:59:22;3.23;;;1.67;;
31754;SDS011;18325;52.018;4.726;2023-02-28T13:04:53;1.23;;;1.13;;
31754;SDS011;18325;52.018;4.726;2023-02-28T13:10:25;1.23;;;0.97;;
31754;SDS011;18325;52.018;4.726;2023-02-28T13:13:04;3.57;;;1.20;;
31754;SDS011;18325;52.018;4.726;2023-02-28T13:15:31;1.20;;;1.10;;
31754;SDS011;18325;52.018;4.726;2023-02-28T13:18:03;2.37;;;1.47;;
31754;SDS011;18325;52.018;4.726;2023-02-28T13:20:31;4.63;;;1.10;;
31754;SDS011;18325;52.018;4.726;2023-02-28T13:23:00;2.57;;;1.87;;
31754;SDS011;18325;52.018;4.726;2023-02-28T13:31:32;2.20;;;1.30;;
31754;SDS011;18325;52.018;4.726;2023-02-28T13:36:41;1.13;;;1.03;;
31754;SDS011;18325;52.018;4.726;2023-02-28T13:45:19;3.27;;;1.50;;
31754;SDS011;18325;52.018;4.726;2023-02-28T13:47:51;1.73;;;1.10;;
31754;SDS011;18325;52.018;4.726;2023-02-28T13:50:20;1.23;;;1.03;;
31754;SDS011;18325;52.018;4.726;2023-02-28T13:52:52;0.93;;;0.93;;
31754;SDS011;18325;52.018;4.726;2023-02-28T13:55:31;1.80;;;1.60;;
31754;SDS011;18325;52.018;4.726;2023-02-28T13:58:05;2.77;;;1.17;;
31754;SDS011;18325;52.018;4.726;2023-02-28T14:00:43;1.47;;;1.10;;
31754;SDS011;18325;52.018;4.726;2023-02-28T14:03:31;2.37;;;1.23;;
31754;SDS011;18325;52.018;4.726;2023-02-28T14:06:09;1.47;;;1.27;;
31754;SDS011;18325;52.018;4.726;2023-02-28T14:08:51;1.37;;;1.20;;
31754;SDS011;18325;52.018;4.726;2023-02-28T14:11:25;3.50;;;1.30;;
31754;SDS011;18325;52.018;4.726;2023-02-28T14:13:58;3.60;;;1.03;;
31754;SDS011;18325;52.018;4.726;2023-02-28T14:16:25;3.20;;;1.20;;
31754;SDS011;18325;52.018;4.726;2023-02-28T14:18:56;1.83;;;1.00;;
31754;SDS011;18325;52.018;4.726;2023-02-28T14:21:24;1.63;;;1.10;;
31754;SDS011;18325;52.018;4.726;2023-02-28T14:24:07;1.10;;;0.93;;
31754;SDS011;18325;52.018;4.726;2023-02-28T14:27:00;1.13;;;1.07;;
31754;SDS011;18325;52.018;4.726;2023-02-28T14:29:42;0.97;;;0.80;;
31754;SDS011;18325;52.018;4.726;2023-02-28T14:32:21;2.57;;;1.17;;
31754;SDS011;18325;52.018;4.726;2023-02-28T14:34:52;1.53;;;1.03;;
31754;SDS011;18325;52.018;4.726;2023-02-28T14:37:23;1.20;;;0.90;;
31754;SDS011;18325;52.018;4.726;2023-02-28T14:40:25;2.73;;;1.73;;
31754;SDS011;18325;52.018;4.726;2023-02-28T14:42:55;4.10;;;1.60;;
31754;SDS011;18325;52.018;4.726;2023-02-28T14:45:24;2.23;;;1.20;;
31754;SDS011;18325;52.018;4.726;2023-02-28T14:47:51;4.03;;;1.87;;
31754;SDS011;18325;52.018;4.726;2023-02-28T14:50:18;1.57;;;1.17;;
31754;SDS011;18325;52.018;4.726;2023-02-28T14:52:46;1.90;;;1.50;;
31754;SDS011;18325;52.018;4.726;2023-02-28T14:55:14;1.83;;;1.20;;
31754;SDS011;18325;52.018;4.726;2023-02-28T14:57:42;2.13;;;1.00;;
31754;SDS011;18325;52.018;4.726;2023-02-28T15:00:20;2.67;;;1.20;;
31754;SDS011;18325;52.018;4.726;2023-02-28T15:02:50;1.73;;;1.50;;
31754;SDS011;18325;52.018;4.726;2023-02-28T15:05:21;1.57;;;1.03;;
31754;SDS011;18325;52.018;4.726;2023-02-28T15:08:01;1.27;;;1.17;;
31754;SDS011;18325;52.018;4.726;2023-02-28T15:10:29;1.60;;;1.10;;
31754;SDS011;18325;52.018;4.726;2023-02-28T15:12:57;1.30;;;1.10;;
31754;SDS011;18325;52.018;4.726;2023-02-28T15:15:27;1.73;;;1.17;;
31754;SDS011;18325;52.018;4.726;2023-02-28T15:18:05;1.60;;;1.07;;
31754;SDS011;18325;52.018;4.726;2023-02-28T15:20:35;1.10;;;1.00;;
31754;SDS011;18325;52.018;4.726;2023-02-28T15:23:02;1.77;;;1.30;;
31754;SDS011;18325;52.018;4.726;2023-02-28T15:25:29;0.97;;;0.70;;
31754;SDS011;18325;52.018;4.726;2023-02-28T15:27:56;2.37;;;1.10;;
31754;SDS011;18325;52.018;4.726;2023-02-28T15:30:24;1.17;;;1.00;;
31754;SDS011;18325;52.018;4.726;2023-02-28T15:33:07;1.27;;;1.17;;
31754;SDS011;18325;52.018;4.726;2023-02-28T15:35:44;3.43;;;1.23;;
31754;SDS011;18325;52.018;4.726;2023-02-28T15:38:14;1.40;;;1.03;;
31754;SDS011;18325;52.018;4.726;2023-02-28T15:40:43;1.60;;;1.07;;
31754;SDS011;18325;52.018;4.726;2023-02-28T15:43:14;1.40;;;1.20;;
31754;SDS011;18325;52.018;4.726;2023-02-28T15:45:44;4.07;;;1.90;;
31754;SDS011;18325;52.018;4.726;2023-02-28T15:48:16;1.70;;;1.57;;
31754;SDS011;18325;52.018;4.726;2023-02-28T15:50:44;1.93;;;1.33;;
31754;SDS011;18325;52.018;4.726;2023-02-28T15:53:14;2.77;;;1.50;;
31754;SDS011;18325;52.018;4.726;2023-02-28T15:55:42;1.77;;;1.60;;
31754;SDS011;18325;52.018;4.726;2023-02-28T15:58:08;2.23;;;1.40;;
31754;SDS011;18325;52.018;4.726;2023-02-28T16:00:37;1.97;;;1.40;;
31754;SDS011;18325;52.018;4.726;2023-02-28T16:08:35;2.30;;;1.70;;
31754;SDS011;18325;52.018;4.726;2023-02-28T16:11:02;2.90;;;2.63;;
31754;SDS011;18325;52.018;4.726;2023-02-28T16:13:28;3.33;;;2.27;;
31754;SDS011;18325;52.018;4.726;2023-02-28T16:15:55;5.43;;;1.93;;
31754;SDS011;18325;52.018;4.726;2023-02-28T16:18:21;3.10;;;1.60;;
31754;SDS011;18325;52.018;4.726;2023-02-28T16:20:49;1.83;;;1.53;;
31754;SDS011;18325;52.018;4.726;2023-02-28T16:23:15;3.20;;;1.93;;
31754;SDS011;18325;52.018;4.726;2023-02-28T16:25:42;2.47;;;1.63;;
31754;SDS011;18325;52.018;4.726;2023-02-28T16:28:12;1.50;;;1.40;;
31754;SDS011;18325;52.018;4.726;2023-02-28T16:30:44;3.17;;;1.57;;